DW8546 Weather Reports


Display with metric or nautical units.
time (UTC)temp
F
wind
direction
speed
MPH
gust
MPH
rain 1hr
in
rain 24hr
in
rain mn
in
humidity
%
barometer
mb
20180525051944 72 293 8.0 13.0 0.00 0.00 0.00 36 941.9
20180525050532 73 309 8.0 15.0 0.00 0.00 0.00 34 941.9
20180525045556 74 310 10.0 15.0 0.00 0.00 0.00 34 943.6
20180525044925 74 307 10.0 14.0 0.00 0.00 0.00 34 941.8
20180525043512 74 297 8.0 14.0 0.00 0.00 0.00 34 941.7
20180525042549 75 295 9.0 13.0 0.00 0.00 0.00 34 943.3
20180525041947 74 300 8.0 12.0 0.00 0.00 0.00 34 941.5
20180525040405 75 309 9.0 12.0 0.00 0.00 0.00 34 941.4
20180525035601 76 301 8.0 11.0 0.00 0.00 0.00 34 943.1
20180525034942 75 298 8.0 11.0 0.00 0.00 0.00 34 941.3
20180525033359 76 302 9.0 13.0 0.00 0.00 0.00 33 941.2
20180525032600 77 308 8.0 13.0 0.00 0.00 0.00 33 942.9
20180525031921 77 295 8.0 14.0 0.00 0.00 0.00 33 941.1
20180525030337 77 302 9.0 14.0 0.00 0.00 0.00 33 940.8
20180525025543 78 300 9.0 15.0 0.00 0.00 0.00 32 942.5
20180525024923 78 319 9.0 15.0 0.00 0.01 0.00 32 940.6
20180525023341 80 294 10.0 13.0 0.00 0.01 0.00 31 940.5
20180525022543 81 310 10.0 15.0 0.00 0.01 0.00 31 942.2
20180525021813 81 296 8.0 12.0 0.00 0.01 0.00 31 940.4
20180525020402 81 307 9.0 18.0 0.00 0.01 0.00 30 940.4
20180525015602 82 298 7.0 15.0 0.00 0.01 0.00 30 942.1
20180525014809 82 300 7.0 15.0 0.00 0.08 0.00 30 940.3
20180525013353 83 293 7.0 13.0 0.00 0.08 0.00 29 940.1
20180525012557 83 309 9.0 17.0 0.00 0.08 0.00 28 941.8
20180525011756 83 319 9.0 16.0 0.00 0.08 0.00 28 940.0
20180525010342 84 327 6.0 11.0 0.00 0.08 0.00 27 939.9
20180525005545 85 309 6.0 11.0 0.00 0.08 0.00 28 941.8
20180525004743 84 316 6.0 12.0 0.00 0.08 0.00 27 939.9
20180525003338 85 338 7.0 12.0 0.00 0.08 0.00 28 939.9
20180525002545 85 303 8.0 13.0 0.00 0.08 0.00 28 941.7
20180525001803 85 297 8.0 15.0 0.00 0.08 0.00 26 939.9
20180525000223 85 305 7.0 16.0 0.00 0.08 0.00 27 939.8
20180524235553 86 290 10.0 15.0 0.00 0.08 0.00 26 941.7
20180524234757 85 297 8.0 13.0 0.00 0.08 0.00 27 939.9
20180524233218 85 323 7.0 12.0 0.00 0.08 0.00 27 940.0
20180524232551 86 317 6.0 12.0 0.00 0.08 0.00 27 941.9
20180524231638 85 54 4.0 7.0 0.00 0.08 0.00 26 940.2
20180524230225 86 9 6.0 10.0 0.00 0.08 0.00 26 940.2
20180524225556 87 98 0.0 3.0 0.00 0.08 0.00 31 942.0
20180524224628 86 188 0.0 4.0 0.00 0.08 0.00 28 940.2
20180524223220 84 3 1.0 9.0 0.00 0.08 0.00 32 940.4
20180524222557 85 22 4.0 9.0 0.00 0.08 0.00 32 942.3
20180524221618 85 57 0.0 3.0 0.00 0.08 0.00 31 940.4
20180524220208 83 321 5.0 9.0 0.00 0.08 0.00 31 940.6
20180524215547 84 311 6.0 9.0 0.00 0.08 0.00 33 942.4
20180524214621 84 303 2.0 7.0 0.00 0.08 0.00 33 940.6
20180524213208 83 77 0.0 7.0 0.00 0.08 0.00 33 940.7
20180524212544 84 6 1.0 5.0 0.00 0.08 0.00 37 942.5
20180524211615 83 302 3.0 5.0 0.00 0.08 0.00 34 940.7
20180524210035 85 55 1.0 4.0 0.00 0.08 0.00 31 940.8
20180524205551 86 106 1.0 4.0 0.00 0.08 0.00 35 942.7
20180524204638 85 191 0.0 6.0 0.00 0.08 0.00 35 941.0
20180524203048 84 131 0.0 5.0 0.00 0.08 0.00 36 941.1
20180524202601 84 148 2.0 5.0 0.00 0.08 0.00 33 943.0
20180524201631 82 52 0.0 8.0 0.00 0.08 0.00 34 941.3
20180524200042 81 1 3.0 11.0 0.00 0.08 0.00 33 941.3
20180524195557 81 40 4.0 12.0 0.00 0.08 0.00 33 943.1
20180524194451 81 351 6.0 12.0 0.00 0.08 0.00 32 941.4
20180524193043 80 335 4.0 12.0 0.00 0.08 0.00 33 941.4
20180524192557 81 330 7.0 13.0 0.00 0.08 0.00 33 943.2
20180524191453 79 283 5.0 12.0 0.00 0.08 0.00 34 941.6
20180524190051 79 326 7.0 14.0 0.00 0.08 0.00 34 941.5
20180524185558 80 335 6.0 11.0 0.00 0.08 0.00 33 943.3
20180524184457 79 21 8.0 14.0 0.00 0.08 0.00 34 941.7
20180524183041 78 274 7.0 14.0 0.00 0.08 0.00 35 941.8
20180524182547 78 278 10.0 20.0 0.00 0.08 0.00 33 943.6
20180524181441 78 338 9.0 15.0 0.00 0.08 0.00 35 941.8
20180524175911 77 273 10.0 14.0 0.00 0.08 0.00 33 941.9
20180524175549 77 295 9.0 14.0 0.00 0.08 0.00 34 943.7
20180524174425 76 237 7.0 17.0 0.00 0.08 0.00 34 941.9
20180524172854 76 297 7.0 17.0 0.00 0.08 0.00 36 941.9
20180524172545 76 326 10.0 17.0 0.00 0.08 0.00 37 943.7
20180524171456 75 309 8.0 17.0 0.00 0.08 0.00 36 941.8
20180524165912 74 290 8.0 18.0 0.00 0.08 0.00 39 941.9
20180524165557 75 315 9.0 18.0 0.00 0.08 0.00 39 943.6
20180524164318 74 290 7.0 13.0 0.00 0.08 0.00 40 941.9
20180524162911 72 259 6.0 13.0 0.00 0.08 0.00 44 941.9
20180524162557 73 317 5.0 13.0 0.00 0.08 0.00 47 943.7
20180524161313 72 307 6.0 12.0 0.00 0.08 0.00 46 942.0
20180524155911 71 15 5.0 10.0 0.00 0.08 0.00 48 942.1
20180524155559 71 316 6.0 11.0 0.00 0.08 0.00 50 943.7
20180524154328 69 338 8.0 11.0 0.00 0.08 0.00 53 942.1
20180524152743 69 318 7.0 11.0 0.00 0.08 0.00 55 942.1
20180524152606 69 305 7.0 11.0 0.00 0.08 0.00 55 943.8
20180524151311 68 281 7.0 12.0 0.00 0.08 0.00 56 942.0
20180524145739 68 318 6.0 11.0 0.00 0.08 0.00 56 942.0
20180524145603 68 305 8.0 11.0 0.00 0.08 0.00 57 943.7
20180524144323 68 330 3.0 10.0 0.00 0.08 0.00 57 941.9
20180524142741 67 328 5.0 10.0 0.00 0.08 0.00 58 941.7
20180524142558 67 326 4.0 13.0 0.00 0.08 0.00 59 943.3
20180524141303 66 326 5.0 11.0 0.00 0.08 0.00 60 941.6
20180524135721 64 326 10.0 18.0 0.00 0.08 0.00 62 941.5
20180524135542 64 338 12.0 18.0 0.00 0.08 0.00 62 943.2
20180524134318 63 323 12.0 19.0 0.00 0.08 0.00 62 941.6
20180524132729 64 332 10.0 14.0 0.00 0.08 0.00 61 941.3
20180524132549 64 347 8.0 13.0 0.00 0.08 0.00 61 942.9
20180524131258 64 33 4.0 8.0 0.00 0.08 0.00 61 941.2
20180524125722 63 325 4.0 10.0 0.00 0.08 0.00 62 940.9
20180524125544 64 58 3.0 10.0 0.00 0.08 0.00 62 942.7
20180524124145 63 340 3.0 11.0 0.00 0.08 0.00 63 940.9
20180524122731 63 318 6.0 13.0 0.00 0.08 0.00 62 940.8
20180524122551 64 312 7.0 13.0 0.00 0.08 0.00 61 942.6
20180524121132 63 318 4.0 13.0 0.00 0.08 0.00 61 940.8
20180524115726 63 356 6.0 11.0 0.00 0.08 0.00 61 940.5
20180524115545 64 334 5.0 10.0 0.00 0.08 0.00 61 942.2
20180524114139 64 30 3.0 15.0 0.00 0.08 0.00 60 940.3
20180524112601 64 342 6.0 18.0 0.00 0.08 0.00 62 940.2
20180524112558 64 328 6.0 18.0 0.00 0.08 0.00 61 941.9
20180524111138 64 347 9.0 18.0 0.00 0.08 0.00 61 940.2
20180524105550 66 311 5.0 16.0 0.00 0.08 0.00 55 940.1
20180524105547 66 319 6.0 16.0 0.00 0.08 0.00 56 941.9
20180524104135 65 340 7.0 16.0 0.00 0.08 0.00 60 940.0
20180524102556 65 320 7.0 17.0 0.00 0.08 0.00 61 940.0
20180524102551 65 328 7.0 17.0 0.00 0.08 0.00 61 941.8
20180524101127 64 351 8.0 16.0 0.00 0.08 0.00 63 940.0
20180524095545 65 288 7.0 18.0 0.00 0.08 0.00 61 939.9
20180524095543 66 298 8.0 18.0 0.00 0.08 0.00 61 941.6
20180524094008 66 343 11.0 18.0 0.00 0.08 0.00 60 939.7
20180524092602 66 309 13.0 17.0 0.00 0.08 0.00 60 939.5
20180524092557 66 303 13.0 17.0 0.00 0.08 0.00 60 941.2
20180524091004 65 354 11.0 20.0 0.00 0.08 0.00 61 939.5
20180524085553 66 319 13.0 19.0 0.00 0.08 0.00 60 939.5
20180524085550 66 309 13.0 19.0 0.00 0.08 0.00 60 941.2
20180524084001 68 309 10.0 16.0 0.00 0.08 0.00 57 939.5
20180524082559 71 307 5.0 10.0 0.00 0.08 0.00 52 941.1
20180524082416 70 295 5.0 10.0 0.00 0.08 0.00 52 939.4
20180524081000 69 307 6.0 9.0 0.00 0.08 0.00 53 939.2
20180524075546 69 308 3.0 10.0 0.00 0.08 0.00 55 940.9
20180524075437 69 4 2.0 10.0 0.00 0.08 0.00 54 939.1
20180524073836 71 249 1.0 8.0 0.00 0.08 0.00 50 939.1
20180524072600 70 288 4.0 9.0 0.00 0.08 0.00 51 940.6
20180524072348 69 250 3.0 9.0 0.00 0.08 0.00 52 938.9
20180524070938 68 284 5.0 12.0 0.00 0.08 0.00 56 938.8
20180524065553 68 297 10.0 19.0 0.00 0.08 0.00 57 940.3
20180524065303 68 269 9.0 19.0 0.00 0.08 0.08 56 938.5
20180524063845 68 343 11.0 18.0 0.00 0.08 0.08 55 938.1
20180524062605 68 322 13.0 22.0 0.00 0.08 0.08 57 939.7
20180524062425 67 335 14.0 22.0 0.00 0.08 0.08 57 937.9
20180524060839 68 313 10.0 17.0 0.00 0.08 0.08 57 937.7
20180524055601 69 336 5.0 15.0 0.00 0.08 0.08 54 939.4
20180524055241 68 357 7.0 16.0 0.00 0.08 0.08 55 937.5
20180524053839 69 320 9.0 18.0 0.00 0.08 0.08 55 937.5
20180524052550 72 349 10.0 17.0 0.00 0.08 0.08 48 939.0